createdAt,value
2019-06-15T00:02:21.411Z,16.97
2019-06-15T00:04:50.286Z,16.07
2019-06-15T00:07:19.129Z,17.00
2019-06-15T00:09:47.945Z,16.43
2019-06-15T00:12:16.880Z,16.83
2019-06-15T00:14:45.647Z,16.67
2019-06-15T00:17:14.463Z,16.43
2019-06-15T00:19:43.327Z,16.83
2019-06-15T00:22:12.104Z,16.63
2019-06-15T00:24:40.922Z,16.37
2019-06-15T00:27:09.727Z,16.33
2019-06-15T00:29:38.577Z,16.17
2019-06-15T00:32:07.524Z,15.40
2019-06-15T00:34:36.299Z,16.00
2019-06-15T00:37:05.076Z,16.30
2019-06-15T00:39:33.915Z,16.20
2019-06-15T00:42:02.731Z,16.60
2019-06-15T00:44:31.576Z,16.17
2019-06-15T00:47:00.355Z,15.20
2019-06-15T00:49:29.236Z,15.80
2019-06-15T00:51:58.038Z,15.93
2019-06-15T00:54:27.128Z,16.00
2019-06-15T00:56:55.927Z,15.70
2019-06-15T00:59:24.771Z,15.57
2019-06-15T01:01:53.589Z,15.47
2019-06-15T01:04:22.383Z,15.20
2019-06-15T01:06:51.168Z,15.43
2019-06-15T01:09:19.955Z,15.03
2019-06-15T01:11:48.798Z,15.43
2019-06-15T01:14:17.598Z,14.93
2019-06-15T01:16:46.395Z,15.90
2019-06-15T01:19:15.386Z,14.73
2019-06-15T01:21:44.295Z,15.50
2019-06-15T01:24:13.096Z,15.37
2019-06-15T01:26:41.878Z,15.50
2019-06-15T01:29:10.681Z,15.00
2019-06-15T01:31:39.510Z,15.27
2019-06-15T01:34:08.383Z,14.80
2019-06-15T01:36:37.268Z,14.73
2019-06-15T01:39:06.404Z,14.07
2019-06-15T01:41:35.160Z,14.30
2019-06-15T01:44:03.926Z,15.47
2019-06-15T01:46:32.761Z,14.03
2019-06-15T01:49:01.636Z,13.80
2019-06-15T01:51:30.458Z,13.73
2019-06-15T01:53:59.409Z,13.83
2019-06-15T01:56:28.292Z,13.23
2019-06-15T01:58:57.055Z,13.20
2019-06-15T02:01:25.844Z,13.20
2019-06-15T02:03:54.682Z,12.50
2019-06-15T02:06:23.473Z,12.20
2019-06-15T02:08:52.358Z,12.83
2019-06-15T02:11:21.203Z,11.73
2019-06-15T02:13:50.019Z,12.70
2019-06-15T02:16:18.807Z,11.70
2019-06-15T02:18:47.670Z,11.50
2019-06-15T02:21:16.503Z,11.10
2019-06-15T02:23:45.306Z,10.80
2019-06-15T02:26:14.283Z,11.13
2019-06-15T02:28:43.103Z,10.93
2019-06-15T02:31:11.886Z,11.23
2019-06-15T02:33:40.821Z,10.07
2019-06-15T02:36:09.739Z,10.27
2019-06-15T02:38:38.528Z,10.07
2019-06-15T02:41:07.423Z,9.63
2019-06-15T02:43:36.276Z,10.07
2019-06-15T02:46:05.055Z,9.43
2019-06-15T02:48:33.947Z,9.17
2019-06-15T02:51:02.739Z,9.27
2019-06-15T02:53:31.583Z,9.33
2019-06-15T02:56:00.467Z,9.30
2019-06-15T02:58:29.280Z,9.00
2019-06-15T03:01:06.986Z,9.03
2019-06-15T03:03:35.972Z,8.53
2019-06-15T03:06:05.253Z,8.70
2019-06-15T03:08:34.103Z,8.30
2019-06-15T03:11:03.082Z,8.40
2019-06-15T03:13:32.689Z,8.60
2019-06-15T03:16:01.543Z,7.70
2019-06-15T03:18:30.340Z,8.10
2019-06-15T03:20:59.284Z,7.73
2019-06-15T03:23:28.142Z,7.77
2019-06-15T03:26:05.070Z,8.03
2019-06-15T03:28:27.418Z,7.80
2019-06-15T03:30:56.581Z,7.13
2019-06-15T03:33:25.426Z,7.03
2019-06-15T03:35:54.334Z,7.77
2019-06-15T03:38:23.138Z,6.87
2019-06-15T03:40:51.908Z,6.93
2019-06-15T03:43:20.682Z,6.63
2019-06-15T03:45:49.525Z,7.10
2019-06-15T03:48:18.309Z,7.17
2019-06-15T03:50:48.384Z,6.80
2019-06-15T03:53:36.468Z,7.03
2019-06-15T03:56:20.273Z,6.20
2019-06-15T03:58:35.805Z,6.30
2019-06-15T04:01:17.598Z,6.40
2019-06-15T04:03:46.351Z,6.60
2019-06-15T04:06:15.133Z,5.80
2019-06-15T04:08:45.737Z,5.90
2019-06-15T04:11:14.569Z,5.77
2019-06-15T04:13:43.635Z,5.73
2019-06-15T04:16:12.503Z,5.27
2019-06-15T04:18:41.357Z,6.00
2019-06-15T04:21:10.120Z,5.20
2019-06-15T04:23:38.941Z,5.33
2019-06-15T04:26:07.761Z,5.60
2019-06-15T04:28:36.639Z,5.83
2019-06-15T04:31:05.441Z,5.03
2019-06-15T04:33:34.265Z,5.63
2019-06-15T04:36:03.298Z,4.80
2019-06-15T04:38:32.118Z,4.77
2019-06-15T04:41:01.627Z,4.73
2019-06-15T04:43:30.647Z,4.77
2019-06-15T04:45:59.438Z,4.47
2019-06-15T04:48:28.323Z,4.73
2019-06-15T04:50:57.171Z,4.87
2019-06-15T04:53:26.046Z,4.67
2019-06-15T04:55:54.896Z,4.40
2019-06-15T04:58:23.663Z,4.57
2019-06-15T05:00:52.429Z,4.63
2019-06-15T05:03:21.227Z,4.37
2019-06-15T05:05:50.045Z,4.43
2019-06-15T05:08:18.884Z,4.23
2019-06-15T05:10:47.762Z,3.90
2019-06-15T05:13:16.538Z,4.57
2019-06-15T05:15:45.271Z,4.23
2019-06-15T05:18:14.137Z,4.10
2019-06-15T05:20:43.022Z,3.83
2019-06-15T05:23:11.812Z,4.73
2019-06-15T05:25:40.600Z,4.53
2019-06-15T05:28:09.474Z,4.23
2019-06-15T05:30:38.311Z,4.27
2019-06-15T05:33:07.092Z,3.80
2019-06-15T05:35:35.871Z,4.40
2019-06-15T05:38:04.649Z,4.50
2019-06-15T05:40:33.423Z,5.40
2019-06-15T05:43:02.320Z,6.33
2019-06-15T05:45:31.139Z,6.07
2019-06-15T05:47:59.925Z,10.60
2019-06-15T05:50:28.729Z,8.70
2019-06-15T05:52:57.516Z,9.43
2019-06-15T05:55:26.319Z,10.00
2019-06-15T05:57:55.155Z,10.63
2019-06-15T06:00:25.301Z,8.60
2019-06-15T06:02:54.152Z,9.00
2019-06-15T06:05:22.952Z,6.93
2019-06-15T06:07:51.829Z,6.43
2019-06-15T06:10:39.920Z,6.20
2019-06-15T06:13:08.827Z,3.83
2019-06-15T06:15:37.687Z,3.53
2019-06-15T06:18:06.620Z,3.77
2019-06-15T06:20:35.410Z,2.40
2019-06-15T06:23:04.231Z,2.53
2019-06-15T06:25:32.997Z,1.90
2019-06-15T06:28:02.027Z,1.70
2019-06-15T06:30:30.863Z,1.80
2019-06-15T06:32:59.641Z,1.80
2019-06-15T06:35:28.454Z,1.20
2019-06-15T06:37:57.216Z,1.47
2019-06-15T06:40:25.976Z,1.13
2019-06-15T06:42:56.044Z,1.60
2019-06-15T06:45:25.082Z,1.47
2019-06-15T06:47:56.567Z,1.37
2019-06-15T06:50:25.710Z,1.50
2019-06-15T06:52:54.560Z,1.33
2019-06-15T06:55:23.412Z,1.60
2019-06-15T06:57:57.130Z,1.80
2019-06-15T07:00:24.710Z,2.20
2019-06-15T07:02:53.709Z,2.07
2019-06-15T07:05:23.043Z,2.43
2019-06-15T07:07:52.479Z,1.97
2019-06-15T07:10:21.703Z,1.80
2019-06-15T07:12:50.927Z,1.80
2019-06-15T07:15:20.223Z,1.93
2019-06-15T07:17:49.054Z,2.00
2019-06-15T07:20:18.023Z,2.00
2019-06-15T07:22:46.873Z,2.00
2019-06-15T07:25:15.705Z,1.70
2019-06-15T07:27:46.665Z,2.00
2019-06-15T07:30:16.388Z,1.93
2019-06-15T07:32:45.240Z,1.97
2019-06-15T07:35:15.189Z,2.30
2019-06-15T07:37:44.007Z,2.80
2019-06-15T07:40:12.882Z,2.60
2019-06-15T07:42:41.730Z,2.70
2019-06-15T07:45:11.472Z,2.57
2019-06-15T07:47:40.329Z,2.53
2019-06-15T07:50:09.111Z,2.93
2019-06-15T07:52:37.892Z,3.30
2019-06-15T07:55:07.171Z,3.30
2019-06-15T07:57:35.935Z,3.30
2019-06-15T08:00:05.867Z,2.93
2019-06-15T08:02:34.774Z,3.70
2019-06-15T08:05:04.174Z,3.63
2019-06-15T08:07:32.928Z,3.73
2019-06-15T08:10:01.809Z,3.33
2019-06-15T08:12:30.734Z,3.57
2019-06-15T08:14:59.874Z,3.97
2019-06-15T08:17:28.831Z,4.03
2019-06-15T08:19:57.668Z,4.33
2019-06-15T08:22:26.423Z,4.27
2019-06-15T08:24:55.228Z,4.43
2019-06-15T08:27:24.004Z,4.00
2019-06-15T08:29:52.795Z,4.77
2019-06-15T08:32:21.618Z,4.73
2019-06-15T08:34:50.518Z,4.80
2019-06-15T08:37:19.458Z,5.10
2019-06-15T08:39:48.395Z,5.07
2019-06-15T08:42:17.184Z,5.00
2019-06-15T08:44:45.963Z,4.97
2019-06-15T08:47:14.812Z,4.77
2019-06-15T08:49:43.625Z,4.63
2019-06-15T08:52:12.390Z,5.27
2019-06-15T08:54:41.210Z,4.77
2019-06-15T08:57:09.947Z,5.17
2019-06-15T08:59:38.764Z,5.50
2019-06-15T09:02:07.655Z,4.80
2019-06-15T09:04:37.163Z,4.97
2019-06-15T09:07:06.028Z,5.23
2019-06-15T09:09:34.930Z,5.10
2019-06-15T09:12:03.878Z,4.80
2019-06-15T09:14:32.743Z,4.13
2019-06-15T09:17:01.612Z,4.97
2019-06-15T09:19:30.374Z,4.33
2019-06-15T09:21:59.204Z,5.00
2019-06-15T09:24:28.239Z,4.07
2019-06-15T09:26:57.134Z,4.70
2019-06-15T09:29:26.019Z,5.07
2019-06-15T09:31:54.906Z,4.80
2019-06-15T09:34:23.693Z,4.67
2019-06-15T09:36:52.549Z,4.27
2019-06-15T09:39:21.457Z,4.80
2019-06-15T09:41:50.287Z,4.70
2019-06-15T09:44:19.228Z,5.80
2019-06-15T09:46:48.098Z,5.33
2019-06-15T09:49:16.878Z,6.93
2019-06-15T09:51:45.746Z,5.60
2019-06-15T09:54:14.548Z,5.63
2019-06-15T09:56:43.348Z,6.20
2019-06-15T09:59:25.302Z,6.00
2019-06-15T10:01:42.795Z,5.70
2019-06-15T10:04:11.639Z,6.40
2019-06-15T10:06:40.459Z,6.40
2019-06-15T10:09:09.412Z,6.10
2019-06-15T10:11:38.510Z,6.77
2019-06-15T10:14:07.383Z,6.03
2019-06-15T10:16:36.221Z,6.33
2019-06-15T10:19:05.142Z,6.87
2019-06-15T10:21:34.370Z,7.03
2019-06-15T10:24:03.235Z,7.20
2019-06-15T10:26:32.048Z,8.27
2019-06-15T10:29:00.935Z,9.27
2019-06-15T10:31:29.895Z,9.80
2019-06-15T10:33:58.723Z,10.33
2019-06-15T10:36:27.504Z,10.43
2019-06-15T10:38:56.816Z,10.10
2019-06-15T10:41:25.612Z,12.00
2019-06-15T10:43:54.366Z,11.77
2019-06-15T10:46:23.207Z,11.73
2019-06-15T10:48:52.090Z,12.73
2019-06-15T10:51:20.970Z,11.47
2019-06-15T10:53:49.809Z,11.40
2019-06-15T10:56:18.601Z,12.23
2019-06-15T10:58:47.530Z,12.77
2019-06-15T11:01:16.373Z,12.73
2019-06-15T11:03:45.176Z,13.67
2019-06-15T11:06:13.989Z,13.30
2019-06-15T11:08:42.756Z,13.83
2019-06-15T11:11:22.216Z,14.53
2019-06-15T11:13:51.084Z,14.57
2019-06-15T11:16:19.994Z,14.80
2019-06-15T11:18:48.831Z,16.27
2019-06-15T11:21:17.608Z,16.30
2019-06-15T11:23:46.378Z,16.80
2019-06-15T11:26:15.277Z,16.30
2019-06-15T11:28:44.039Z,17.73
2019-06-15T11:31:12.865Z,17.60
2019-06-15T11:33:41.677Z,17.97
2019-06-15T11:36:10.551Z,19.07
2019-06-15T11:38:39.488Z,18.53
2019-06-15T11:41:08.367Z,18.77
2019-06-15T11:43:37.141Z,19.53
2019-06-15T11:46:05.977Z,19.03
2019-06-15T11:48:34.794Z,20.03
2019-06-15T11:51:03.691Z,20.07
2019-06-15T11:53:32.569Z,19.93
2019-06-15T11:56:01.593Z,19.50
2019-06-15T11:58:30.479Z,19.97
2019-06-15T12:00:59.348Z,19.83
2019-06-15T12:03:28.164Z,20.03
2019-06-15T12:05:56.979Z,20.37
2019-06-15T12:08:25.812Z,20.23
2019-06-15T12:10:54.743Z,19.53
2019-06-15T12:13:23.639Z,20.60
2019-06-15T12:15:52.579Z,20.10
2019-06-15T12:18:21.588Z,20.80
2019-06-15T12:20:50.544Z,19.37
2019-06-15T12:23:19.331Z,21.13
2019-06-15T12:25:48.173Z,20.10
2019-06-15T12:28:16.940Z,19.43
2019-06-15T12:30:47.645Z,20.30
2019-06-15T12:33:16.582Z,20.47
2019-06-15T12:35:45.363Z,19.80
2019-06-15T12:38:14.208Z,18.83
2019-06-15T12:40:42.996Z,20.07
2019-06-15T12:43:11.787Z,20.10
2019-06-15T12:45:41.267Z,19.40
2019-06-15T12:48:10.059Z,19.20
2019-06-15T12:50:38.811Z,19.50
2019-06-15T12:53:07.639Z,19.30
2019-06-15T12:55:36.455Z,19.40
2019-06-15T12:58:05.362Z,18.40
2019-06-15T13:00:37.154Z,17.70
2019-06-15T13:03:06.196Z,17.47
2019-06-15T13:05:35.273Z,17.47
2019-06-15T13:08:04.222Z,17.07
2019-06-15T13:10:33.125Z,17.57
2019-06-15T13:13:01.901Z,16.97
2019-06-15T13:15:30.683Z,17.23
2019-06-15T13:17:59.516Z,16.50
2019-06-15T13:20:28.778Z,15.53
2019-06-15T13:22:57.683Z,16.30
2019-06-15T13:25:28.424Z,16.87
2019-06-15T13:27:57.280Z,15.47
2019-06-15T13:30:26.062Z,15.63
2019-06-15T13:32:55.027Z,15.33
2019-06-15T13:35:23.874Z,15.40
2019-06-15T13:37:52.752Z,15.90
2019-06-15T13:40:22.005Z,14.50
2019-06-15T13:42:50.866Z,13.97
2019-06-15T13:45:20.366Z,14.17
2019-06-15T13:47:49.168Z,14.70
2019-06-15T13:50:18.414Z,14.47
2019-06-15T13:52:47.237Z,13.97
2019-06-15T13:55:16.012Z,14.17
2019-06-15T13:57:44.779Z,13.63
2019-06-15T14:00:13.571Z,13.20
2019-06-15T14:02:42.371Z,13.13
2019-06-15T14:05:12.145Z,12.60
2019-06-15T14:07:41.000Z,12.53
2019-06-15T14:10:09.871Z,12.83
2019-06-15T14:12:38.718Z,13.00
2019-06-15T14:15:07.600Z,11.83
2019-06-15T14:17:39.652Z,11.20
2019-06-15T14:20:07.359Z,11.83
2019-06-15T14:22:36.167Z,11.50
2019-06-15T14:25:05.617Z,11.83
2019-06-15T14:27:34.416Z,10.57
2019-06-15T14:30:03.219Z,10.70
2019-06-15T14:32:32.183Z,10.53
2019-06-15T14:35:01.155Z,10.37
2019-06-15T14:37:33.636Z,10.43
2019-06-15T14:40:02.433Z,10.13
2019-06-15T14:42:31.277Z,10.07
2019-06-15T14:45:00.055Z,9.40
2019-06-15T14:47:28.864Z,9.37
2019-06-15T14:49:57.750Z,9.70
2019-06-15T14:52:26.528Z,9.10
2019-06-15T14:54:56.697Z,9.20
2019-06-15T14:57:27.107Z,9.20
2019-06-15T15:00:04.039Z,9.03
2019-06-15T15:02:26.583Z,8.77
2019-06-15T15:04:56.482Z,8.97
2019-06-15T15:07:26.407Z,8.73
2019-06-15T15:09:56.675Z,8.50
2019-06-15T15:12:26.559Z,8.70
2019-06-15T15:14:56.540Z,8.23
2019-06-15T15:17:26.957Z,8.17
2019-06-15T15:19:57.309Z,7.80
2019-06-15T15:22:26.916Z,7.90
2019-06-15T15:24:56.218Z,7.63
2019-06-15T15:27:27.002Z,7.63
2019-06-15T15:29:57.031Z,8.57
2019-06-15T15:32:31.218Z,7.77
2019-06-15T15:34:56.683Z,7.27
2019-06-15T15:37:26.742Z,7.47
2019-06-15T15:39:56.514Z,7.57
2019-06-15T15:42:26.742Z,7.67
2019-06-15T15:44:56.623Z,7.67
2019-06-15T15:47:27.424Z,7.60
2019-06-15T15:49:57.634Z,7.07
2019-06-15T15:52:27.225Z,7.33
2019-06-15T15:54:56.700Z,7.17
2019-06-15T15:57:26.693Z,7.30
2019-06-15T15:59:56.374Z,7.10
2019-06-15T16:02:35.522Z,7.20
2019-06-15T16:04:57.510Z,7.17
2019-06-15T16:07:27.726Z,6.90
2019-06-15T16:09:57.018Z,6.43
2019-06-15T16:12:25.904Z,7.10
2019-06-15T16:14:56.486Z,7.17
2019-06-15T16:17:26.831Z,7.13
2019-06-15T16:19:56.465Z,7.10
2019-06-15T16:22:26.312Z,7.00
2019-06-15T16:24:56.446Z,6.87
2019-06-15T16:27:26.478Z,6.77
2019-06-15T16:29:56.954Z,6.37
2019-06-15T16:32:26.349Z,6.93
2019-06-15T16:34:55.704Z,6.63
2019-06-15T16:37:26.051Z,7.03
2019-06-15T16:39:55.054Z,6.33
2019-06-15T16:42:23.909Z,7.23
2019-06-15T16:44:52.702Z,7.07
2019-06-15T16:47:21.662Z,7.33
2019-06-15T16:49:50.507Z,7.10
2019-06-15T16:52:19.403Z,7.23
2019-06-15T16:54:48.251Z,7.60
2019-06-15T16:57:17.053Z,7.13
2019-06-15T16:59:46.779Z,7.13
2019-06-15T17:02:17.161Z,7.17
2019-06-15T17:04:46.757Z,7.30
2019-06-15T17:07:17.418Z,6.70
2019-06-15T17:09:46.590Z,7.10
2019-06-15T17:12:16.846Z,7.43
2019-06-15T17:14:46.010Z,7.47
2019-06-15T17:17:17.152Z,7.50
2019-06-15T17:19:46.777Z,7.10
2019-06-15T17:22:20.764Z,7.27
2019-06-15T17:24:46.494Z,7.27
2019-06-15T17:27:17.058Z,7.00
2019-06-15T17:29:46.918Z,7.33
2019-06-15T17:32:17.091Z,7.30
2019-06-15T17:34:46.978Z,7.23
2019-06-15T17:37:17.208Z,7.33
2019-06-15T17:39:46.816Z,6.80
2019-06-15T17:42:16.409Z,7.43
2019-06-15T17:44:46.161Z,7.70
2019-06-15T17:47:16.908Z,7.50
2019-06-15T17:49:46.907Z,7.33
2019-06-15T17:52:16.824Z,7.23
2019-06-15T17:54:46.669Z,7.50
2019-06-15T17:57:15.849Z,7.70
2019-06-15T17:59:46.870Z,7.07
2019-06-15T18:02:17.166Z,7.20
2019-06-15T18:04:47.577Z,7.10
2019-06-15T18:07:16.913Z,7.97
2019-06-15T18:09:46.594Z,7.37
2019-06-15T18:12:16.247Z,7.73
2019-06-15T18:14:46.420Z,7.20
2019-06-15T18:17:17.235Z,7.13
2019-06-15T18:19:47.013Z,7.00
2019-06-15T18:22:16.977Z,7.00
2019-06-15T18:24:46.705Z,7.23
2019-06-15T18:27:16.975Z,7.30
2019-06-15T18:29:46.415Z,7.20
2019-06-15T18:32:17.109Z,7.27
2019-06-15T18:34:46.554Z,7.43
2019-06-15T18:37:17.296Z,7.40
2019-06-15T18:39:46.821Z,7.40
2019-06-15T18:42:16.354Z,7.03
2019-06-15T18:44:47.658Z,7.10
2019-06-15T18:47:16.465Z,7.57
2019-06-15T18:49:47.387Z,7.70
2019-06-15T18:52:17.090Z,7.77
2019-06-15T18:54:46.737Z,7.70
2019-06-15T18:57:17.598Z,8.10
2019-06-15T18:59:47.452Z,8.17
2019-06-15T19:02:16.362Z,8.03
2019-06-15T19:04:45.235Z,8.40
2019-06-15T19:07:16.052Z,7.87
2019-06-15T19:09:46.609Z,7.73
2019-06-15T19:12:18.552Z,8.10
2019-06-15T19:14:47.075Z,7.73
2019-06-15T19:17:16.624Z,8.40
2019-06-15T19:19:46.757Z,8.77
2019-06-15T19:22:17.142Z,8.90
2019-06-15T19:24:50.299Z,9.00
2019-06-15T19:27:16.654Z,8.77
2019-06-15T19:29:46.532Z,9.00
2019-06-15T19:32:17.316Z,9.30
2019-06-15T19:34:50.640Z,9.77
2019-06-15T19:37:17.451Z,11.33
2019-06-15T19:39:46.528Z,9.90
2019-06-15T19:42:15.468Z,9.97
2019-06-15T19:44:44.275Z,10.63
2019-06-15T19:47:13.051Z,12.17
2019-06-15T19:49:41.820Z,12.10
2019-06-15T19:52:10.624Z,11.23
2019-06-15T19:54:39.447Z,10.93
2019-06-15T19:57:08.200Z,12.23
2019-06-15T19:59:36.972Z,13.67
2019-06-15T20:02:07.163Z,13.27
2019-06-15T20:04:36.301Z,12.20
2019-06-15T20:07:06.563Z,11.50
2019-06-15T20:09:37.069Z,12.97
2019-06-15T20:12:06.573Z,13.43
2019-06-15T20:14:36.791Z,13.97
2019-06-15T20:17:07.356Z,13.33
2019-06-15T20:19:37.649Z,13.57
2019-06-15T20:22:06.880Z,14.07
2019-06-15T20:24:36.499Z,14.63
2019-06-15T20:27:10.062Z,13.97
2019-06-15T20:29:36.194Z,14.60
2019-06-15T20:32:06.858Z,15.33
2019-06-15T20:34:37.159Z,15.03
2019-06-15T20:37:06.345Z,16.60
2019-06-15T20:39:36.322Z,16.17
2019-06-15T20:42:07.904Z,15.70
2019-06-15T20:44:36.785Z,16.50
2019-06-15T20:47:06.549Z,16.40
2019-06-15T20:49:37.012Z,15.83
2019-06-15T20:52:07.111Z,16.53
2019-06-15T20:54:36.100Z,17.20
2019-06-15T20:57:06.375Z,17.07
2019-06-15T20:59:36.963Z,17.50
2019-06-15T21:02:06.730Z,18.17
2019-06-15T21:04:36.391Z,18.03
2019-06-15T21:07:06.624Z,17.37
2019-06-15T21:09:36.323Z,18.07
2019-06-15T21:12:06.603Z,18.23
2019-06-15T21:14:36.542Z,18.37
2019-06-15T21:17:06.805Z,18.40
2019-06-15T21:19:36.189Z,18.50
2019-06-15T21:22:06.307Z,18.63
2019-06-15T21:24:37.338Z,19.00
2019-06-15T21:27:06.351Z,19.20
2019-06-15T21:29:36.986Z,19.10
2019-06-15T21:32:06.058Z,18.80
2019-06-15T21:34:36.183Z,18.67
2019-06-15T21:37:06.614Z,19.27
2019-06-15T21:39:36.447Z,19.47
2019-06-15T21:42:05.833Z,19.80
2019-06-15T21:44:36.157Z,19.97
2019-06-15T21:47:06.938Z,20.33
2019-06-15T21:49:36.042Z,19.70
2019-06-15T21:52:06.946Z,20.27
2019-06-15T21:54:36.008Z,20.93
2019-06-15T21:57:07.043Z,21.63
2019-06-15T21:59:36.934Z,19.93
2019-06-15T22:02:07.004Z,20.33
2019-06-15T22:04:36.841Z,20.33
2019-06-15T22:07:06.592Z,20.60
2019-06-15T22:09:36.451Z,21.00
2019-06-15T22:12:06.831Z,20.83
2019-06-15T22:14:36.079Z,20.20
2019-06-15T22:17:06.743Z,21.03
2019-06-15T22:19:36.886Z,21.10
2019-06-15T22:22:07.470Z,20.17
2019-06-15T22:24:36.788Z,20.63
2019-06-15T22:27:06.693Z,21.20
2019-06-15T22:29:36.520Z,20.63
2019-06-15T22:32:06.818Z,20.60
2019-06-15T22:34:36.426Z,21.90
2019-06-15T22:37:06.918Z,19.73
2019-06-15T22:39:37.070Z,19.63
2019-06-15T22:42:06.893Z,19.63
2019-06-15T22:44:37.276Z,20.03
2019-06-15T22:47:06.879Z,20.77
2019-06-15T22:49:37.853Z,20.63
2019-06-15T22:52:06.764Z,18.93
2019-06-15T22:54:37.672Z,19.47
2019-06-15T22:57:06.315Z,19.57
2019-06-15T22:59:35.228Z,20.03
2019-06-15T23:02:03.993Z,20.53
2019-06-15T23:04:32.809Z,18.60
2019-06-15T23:07:01.639Z,19.47
2019-06-15T23:09:30.506Z,18.90
2019-06-15T23:11:59.287Z,19.80
2019-06-15T23:14:28.107Z,17.90
2019-06-15T23:16:56.984Z,18.07
2019-06-15T23:19:26.199Z,18.30
2019-06-15T23:21:57.235Z,17.93
2019-06-15T23:24:27.195Z,18.00
2019-06-15T23:26:57.136Z,18.43
2019-06-15T23:29:27.144Z,18.23
2019-06-15T23:31:57.258Z,18.30
2019-06-15T23:34:27.026Z,17.30
2019-06-15T23:37:00.696Z,18.13
2019-06-15T23:39:28.429Z,17.07
2019-06-15T23:41:57.209Z,17.23
2019-06-15T23:44:27.003Z,17.73
2019-06-15T23:46:55.970Z,17.90
2019-06-15T23:49:26.814Z,17.37
2019-06-15T23:51:57.316Z,18.57
2019-06-15T23:54:27.898Z,18.17
2019-06-15T23:56:56.943Z,18.43
2019-06-15T23:59:26.437Z,18.00
